createdAt,value
2022-12-13T00:02:25.982Z,30.15
2022-12-13T00:04:55.495Z,28.38
2022-12-13T00:07:24.971Z,29.15
2022-12-13T00:09:54.478Z,27.63
2022-12-13T00:12:24.017Z,28.40
2022-12-13T00:14:56.538Z,29.77
2022-12-13T00:17:26.006Z,29.10
2022-12-13T00:19:55.833Z,31.17
2022-12-13T00:22:25.292Z,32.25
2022-12-13T00:24:56.797Z,32.17
2022-12-13T00:27:26.724Z,37.47
2022-12-13T00:29:58.755Z,32.42
2022-12-13T00:32:28.278Z,31.63
2022-12-13T00:34:57.703Z,34.08
2022-12-13T00:37:27.116Z,30.13
2022-12-13T00:39:56.507Z,30.00
2022-12-13T00:42:25.955Z,29.50
2022-12-13T00:44:58.044Z,32.10
2022-12-13T00:47:29.043Z,30.08
2022-12-13T00:49:58.437Z,31.27
2022-12-13T00:52:27.929Z,31.17
2022-12-13T00:54:57.395Z,28.98
2022-12-13T00:57:26.846Z,31.58
2022-12-13T00:59:59.665Z,29.80
2022-12-13T01:02:29.545Z,31.70
2022-12-13T01:04:59.255Z,29.88
2022-12-13T01:07:28.700Z,30.98
2022-12-13T01:10:00.403Z,34.88
2022-12-13T01:12:29.978Z,37.90
2022-12-13T01:15:02.045Z,37.72
2022-12-13T01:17:31.597Z,40.53
2022-12-13T01:20:01.051Z,37.00
2022-12-13T01:22:30.568Z,40.17
2022-12-13T01:24:59.959Z,34.05
2022-12-13T01:27:29.351Z,36.72
2022-12-13T01:29:58.763Z,38.53
2022-12-13T01:32:30.823Z,35.63
2022-12-13T01:35:00.187Z,37.42
2022-12-13T01:37:29.679Z,36.45
2022-12-13T01:39:59.032Z,39.28
2022-12-13T01:42:28.528Z,35.80
2022-12-13T01:45:07.311Z,34.47
2022-12-13T01:47:42.348Z,29.23
2022-12-13T01:50:15.542Z,31.63
2022-12-13T01:52:45.844Z,33.30
2022-12-13T01:55:15.801Z,31.63
2022-12-13T01:57:47.381Z,28.65
2022-12-13T02:00:18.236Z,28.55
2022-12-13T02:02:51.739Z,31.90
2022-12-13T02:05:25.859Z,29.30
2022-12-13T02:07:55.975Z,26.80
2022-12-13T02:10:25.619Z,27.02
2022-12-13T02:12:55.245Z,34.83
2022-12-13T02:15:25.340Z,30.45
2022-12-13T02:18:07.772Z,28.45
2022-12-13T02:20:59.015Z,29.77
2022-12-13T02:23:58.377Z,29.17
2022-12-13T02:26:39.927Z,29.88
2022-12-13T02:29:34.740Z,30.38
2022-12-13T02:32:11.068Z,30.98
2022-12-13T02:34:42.749Z,31.05
2022-12-13T02:37:19.690Z,29.38
2022-12-13T02:39:52.797Z,34.10
2022-12-13T02:42:27.206Z,31.02
2022-12-13T02:44:59.358Z,34.00
2022-12-13T02:47:32.433Z,32.47
2022-12-13T02:50:03.657Z,32.95
2022-12-13T02:52:34.793Z,36.50
2022-12-13T02:55:09.857Z,36.80
2022-12-13T02:57:40.948Z,34.80
2022-12-13T03:00:13.215Z,35.58
2022-12-13T03:02:57.293Z,34.35
2022-12-13T03:05:43.385Z,32.47
2022-12-13T03:08:21.498Z,33.85
2022-12-13T03:10:57.102Z,33.85
2022-12-13T03:13:38.198Z,31.88
2022-12-13T03:16:12.417Z,33.90
2022-12-13T03:18:44.781Z,34.83
2022-12-13T03:21:14.668Z,33.00
2022-12-13T03:23:44.146Z,33.72
2022-12-13T03:26:16.659Z,36.67
2022-12-13T03:28:46.106Z,33.42
2022-12-13T03:31:15.694Z,31.70
2022-12-13T03:33:47.915Z,87.75
2022-12-13T03:36:18.930Z,38.45
2022-12-13T03:38:48.486Z,50.03
2022-12-13T03:41:20.340Z,51.20
2022-12-13T03:43:49.901Z,40.60
2022-12-13T03:46:19.327Z,32.97
2022-12-13T03:48:51.402Z,34.20
2022-12-13T03:51:20.822Z,31.67
2022-12-13T03:53:50.375Z,32.45
2022-12-13T03:56:19.871Z,32.70
2022-12-13T03:58:49.238Z,30.75
2022-12-13T04:01:19.413Z,31.42
2022-12-13T04:03:51.444Z,32.35
2022-12-13T04:06:22.725Z,32.05
2022-12-13T04:08:53.343Z,31.20
2022-12-13T04:11:35.502Z,30.17
2022-12-13T04:14:11.945Z,30.08
2022-12-13T04:16:41.432Z,28.98
2022-12-13T04:19:13.503Z,29.88
2022-12-13T04:21:42.968Z,29.83
2022-12-13T04:24:12.531Z,28.73
2022-12-13T04:26:41.984Z,26.55
2022-12-13T04:29:11.464Z,27.33
2022-12-13T04:31:40.971Z,28.50
2022-12-13T04:34:13.167Z,29.05
2022-12-13T04:36:42.700Z,28.27
2022-12-13T04:39:21.624Z,30.52
2022-12-13T04:41:52.288Z,27.90
2022-12-13T04:44:29.019Z,29.85
2022-12-13T04:47:01.143Z,28.17
2022-12-13T04:49:33.624Z,30.30
2022-12-13T04:52:03.824Z,28.40
2022-12-13T04:54:35.567Z,28.17
2022-12-13T04:57:07.712Z,30.10
2022-12-13T04:59:37.388Z,27.65
2022-12-13T05:02:08.027Z,30.83
2022-12-13T05:04:40.287Z,29.00
2022-12-13T05:07:09.800Z,28.27
2022-12-13T05:09:39.301Z,27.17
2022-12-13T05:12:22.718Z,29.30
2022-12-13T05:14:53.055Z,27.88
2022-12-13T05:17:22.574Z,28.35
2022-12-13T05:19:54.653Z,28.40
2022-12-13T05:22:24.213Z,28.98
2022-12-13T05:24:53.688Z,27.38
2022-12-13T05:27:25.780Z,27.80
2022-12-13T05:30:03.067Z,28.70
2022-12-13T05:32:43.306Z,27.73
2022-12-13T05:35:21.866Z,28.02
2022-12-13T05:37:53.461Z,29.52
2022-12-13T05:40:23.918Z,27.65
2022-12-13T05:43:01.539Z,29.08
2022-12-13T05:45:32.008Z,28.50
2022-12-13T05:48:02.248Z,46.85
2022-12-13T05:50:34.357Z,41.58
2022-12-13T05:53:03.763Z,32.50
2022-12-13T05:55:33.208Z,34.90
2022-12-13T05:58:02.867Z,28.50
2022-12-13T06:00:32.469Z,29.42
2022-12-13T06:03:02.844Z,27.88
2022-12-13T06:05:34.978Z,33.10
2022-12-13T06:08:04.655Z,25.23
2022-12-13T06:11:10.634Z,25.20
2022-12-13T06:13:42.490Z,25.27
2022-12-13T06:16:23.078Z,26.33
2022-12-13T06:19:01.217Z,25.90
2022-12-13T06:21:41.200Z,23.60
2022-12-13T06:24:16.751Z,25.05
2022-12-13T06:26:46.457Z,25.42
2022-12-13T06:29:24.567Z,23.95
2022-12-13T06:32:01.672Z,26.20
2022-12-13T06:34:33.514Z,26.20
2022-12-13T06:37:06.965Z,25.23
2022-12-13T06:39:36.773Z,27.30
2022-12-13T06:42:08.026Z,29.17
2022-12-13T06:44:38.096Z,25.65
2022-12-13T06:47:11.588Z,24.75
2022-12-13T06:49:43.995Z,24.20
2022-12-13T06:52:16.973Z,22.90
2022-12-13T06:54:46.900Z,25.30
2022-12-13T06:57:16.480Z,23.00
2022-12-13T06:59:45.993Z,23.65
2022-12-13T07:02:25.816Z,23.70
2022-12-13T07:04:56.875Z,23.67
2022-12-13T07:07:29.748Z,25.77
2022-12-13T07:10:00.032Z,24.92
2022-12-13T07:12:29.562Z,21.80
2022-12-13T07:14:59.110Z,23.70
2022-12-13T07:17:32.367Z,23.05
2022-12-13T07:20:04.819Z,24.75
2022-12-13T07:22:40.096Z,23.33
2022-12-13T07:25:28.418Z,25.00
2022-12-13T07:28:03.211Z,24.35
2022-12-13T07:30:34.067Z,27.92
2022-12-13T07:33:10.273Z,24.45
2022-12-13T07:35:39.718Z,24.25
2022-12-13T07:38:12.760Z,23.88
2022-12-13T07:40:44.366Z,23.27
2022-12-13T07:43:16.140Z,23.73
2022-12-13T07:45:46.420Z,24.65
2022-12-13T07:48:15.890Z,22.85
2022-12-13T07:50:45.776Z,24.35
2022-12-13T07:53:26.902Z,22.75
2022-12-13T07:55:56.377Z,22.23
2022-12-13T07:58:25.943Z,21.92
2022-12-13T08:00:55.363Z,22.23
2022-12-13T08:03:26.456Z,21.33
2022-12-13T08:06:02.283Z,22.73
2022-12-13T08:08:35.148Z,28.75
2022-12-13T08:11:04.992Z,24.55
2022-12-13T08:13:34.603Z,23.33
2022-12-13T08:16:27.290Z,25.40
2022-12-13T08:19:01.782Z,21.55
2022-12-13T08:21:58.423Z,22.10
2022-12-13T08:24:30.944Z,20.65
2022-12-13T08:27:03.366Z,22.65
2022-12-13T08:29:35.795Z,22.67
2022-12-13T08:32:06.506Z,22.08
2022-12-13T08:34:36.023Z,21.40
2022-12-13T08:37:05.510Z,23.42
2022-12-13T08:39:39.121Z,21.17
2022-12-13T08:42:15.989Z,23.13
2022-12-13T08:44:48.540Z,25.40
2022-12-13T08:47:22.531Z,23.10
2022-12-13T08:50:02.217Z,21.90
2022-12-13T08:52:39.354Z,21.23
2022-12-13T08:55:13.533Z,22.77
2022-12-13T08:57:44.221Z,28.98
2022-12-13T09:00:15.451Z,30.27
2022-12-13T09:02:45.285Z,33.17
2022-12-13T09:05:33.950Z,24.20
2022-12-13T09:08:23.476Z,24.30
2022-12-13T09:11:11.388Z,22.05
2022-12-13T09:13:54.076Z,23.05
2022-12-13T09:16:36.187Z,42.28
2022-12-13T09:19:25.950Z,23.20
2022-12-13T09:22:02.605Z,23.73
2022-12-13T09:24:36.189Z,21.90
2022-12-13T09:27:10.432Z,23.98
2022-12-13T09:29:57.005Z,20.85
2022-12-13T09:32:27.620Z,22.73
2022-12-13T09:34:57.089Z,24.10
2022-12-13T09:37:27.604Z,26.08
2022-12-13T09:39:57.155Z,26.25
2022-12-13T09:42:33.442Z,28.13
2022-12-13T09:45:04.736Z,25.02
2022-12-13T09:47:37.140Z,21.90
2022-12-13T09:50:14.816Z,24.77
2022-12-13T09:52:46.456Z,21.23
2022-12-13T09:55:24.220Z,22.40
2022-12-13T09:57:56.310Z,22.20
2022-12-13T10:00:28.867Z,23.50
2022-12-13T10:03:00.204Z,27.30
2022-12-13T10:05:34.482Z,26.23
2022-12-13T10:08:09.677Z,21.80
2022-12-13T10:10:39.401Z,21.08
2022-12-13T10:13:19.726Z,22.05
2022-12-13T10:15:53.104Z,21.85
2022-12-13T10:18:29.657Z,20.52
2022-12-13T10:20:59.296Z,20.95
2022-12-13T10:23:42.644Z,21.10
2022-12-13T10:26:24.216Z,20.85
2022-12-13T10:29:04.401Z,20.05
2022-12-13T10:31:42.346Z,20.92
2022-12-13T10:34:23.335Z,20.73
2022-12-13T10:36:53.642Z,22.20
2022-12-13T10:39:40.166Z,24.85
2022-12-13T10:42:23.432Z,26.40
2022-12-13T10:45:13.009Z,22.13
2022-12-13T10:47:45.204Z,21.42
2022-12-13T10:50:27.218Z,20.88
2022-12-13T10:52:57.507Z,20.00
2022-12-13T10:55:30.076Z,21.05
2022-12-13T10:58:01.116Z,21.60
2022-12-13T11:00:40.429Z,21.63
2022-12-13T11:03:10.988Z,22.65
2022-12-13T11:05:40.914Z,20.25
2022-12-13T11:08:26.690Z,22.05
2022-12-13T11:11:01.466Z,18.58
2022-12-13T11:13:36.954Z,18.88
2022-12-13T11:16:21.325Z,19.05
2022-12-13T11:18:53.878Z,16.15
2022-12-13T11:21:27.566Z,16.58
2022-12-13T11:24:01.986Z,17.33
2022-12-13T11:26:32.433Z,16.45
2022-12-13T11:29:20.062Z,17.05
2022-12-13T11:31:58.197Z,16.45
2022-12-13T11:34:35.243Z,18.55
2022-12-13T11:37:10.165Z,15.85
2022-12-13T11:39:40.967Z,15.68
2022-12-13T11:42:24.139Z,18.25
2022-12-13T11:45:00.717Z,14.07
2022-12-13T11:47:46.565Z,16.42
2022-12-13T11:50:33.545Z,16.42
2022-12-13T11:53:20.551Z,16.88
2022-12-13T11:55:53.659Z,16.50
2022-12-13T12:01:20.847Z,17.00
2022-12-13T12:03:55.364Z,16.83
2022-12-13T12:06:26.370Z,16.05
2022-12-13T12:08:59.492Z,18.25
2022-12-13T12:11:32.835Z,14.88
2022-12-13T12:14:06.152Z,15.55
2022-12-13T12:16:40.427Z,17.60
2022-12-13T12:19:15.527Z,15.60
2022-12-13T12:22:13.839Z,15.98
2022-12-13T12:24:53.288Z,13.27
2022-12-13T12:27:29.768Z,13.27
2022-12-13T12:30:07.412Z,13.85
2022-12-13T12:32:41.902Z,13.65
2022-12-13T12:35:25.116Z,14.32
2022-12-13T12:37:56.598Z,12.77
2022-12-13T12:41:14.168Z,14.32
2022-12-13T12:43:34.730Z,15.25
2022-12-13T12:46:17.301Z,14.38
2022-12-13T12:49:21.009Z,12.57
2022-12-13T12:51:57.670Z,13.95
2022-12-13T12:54:40.391Z,14.30
2022-12-13T12:57:17.187Z,14.45
2022-12-13T12:59:58.219Z,14.90
2022-12-13T13:02:35.807Z,13.30
2022-12-13T13:05:14.197Z,14.90
2022-12-13T13:07:51.243Z,14.85
2022-12-13T13:10:26.964Z,14.13
2022-12-13T13:13:12.913Z,14.13
2022-12-13T13:15:58.597Z,16.00
2022-12-13T13:18:52.245Z,13.88
2022-12-13T13:21:47.984Z,14.95
2022-12-13T13:24:22.360Z,15.00
2022-12-13T13:26:53.746Z,16.00
2022-12-13T13:29:35.498Z,14.30
2022-12-13T13:32:07.924Z,14.15
2022-12-13T13:34:39.492Z,16.38
2022-12-13T13:37:29.972Z,15.35
2022-12-13T13:40:03.542Z,16.08
2022-12-13T13:42:33.821Z,15.57
2022-12-13T13:45:25.216Z,15.48
2022-12-13T13:48:21.828Z,13.80
2022-12-13T13:51:17.146Z,16.27
2022-12-13T13:54:11.207Z,18.27
2022-12-13T13:57:10.796Z,17.42
2022-12-13T14:00:10.367Z,17.45
2022-12-13T14:03:32.382Z,16.00
2022-12-13T14:06:34.471Z,18.33
2022-12-13T14:09:16.839Z,16.13
2022-12-13T14:12:28.483Z,17.50
2022-12-13T14:15:21.753Z,19.73
2022-12-13T14:18:24.195Z,17.38
2022-12-13T14:21:03.260Z,16.08
2022-12-13T14:23:42.140Z,16.88
2022-12-13T14:26:24.722Z,25.55
2022-12-13T14:28:56.439Z,17.40
2022-12-13T14:31:27.943Z,17.65
2022-12-13T14:33:59.091Z,17.88
2022-12-13T14:36:32.374Z,16.95
2022-12-13T14:39:03.109Z,20.42
2022-12-13T14:41:35.467Z,17.60
2022-12-13T14:44:17.342Z,16.77
2022-12-13T14:46:58.053Z,17.60
2022-12-13T14:49:30.133Z,17.42
2022-12-13T14:52:03.711Z,23.70
2022-12-13T14:54:40.867Z,19.25
2022-12-13T14:57:20.611Z,18.73
2022-12-13T14:59:51.017Z,19.05
2022-12-13T15:02:31.312Z,21.10
2022-12-13T15:05:02.334Z,21.33
2022-12-13T15:07:35.757Z,17.88
2022-12-13T15:10:08.404Z,20.58
2022-12-13T15:12:44.375Z,16.88
2022-12-13T15:15:24.635Z,20.50
2022-12-13T15:18:07.679Z,19.88
2022-12-13T15:20:41.921Z,18.90
2022-12-13T15:23:15.736Z,20.00
2022-12-13T15:25:45.812Z,18.85
2022-12-13T15:28:21.895Z,19.40
2022-12-13T15:30:52.093Z,19.80
2022-12-13T15:33:30.691Z,20.25
2022-12-13T15:36:09.284Z,21.10
2022-12-13T15:38:40.200Z,21.40
2022-12-13T15:41:09.784Z,21.73
2022-12-13T15:43:48.992Z,22.33
2022-12-13T15:46:26.932Z,19.00
2022-12-13T15:48:57.898Z,22.42
2022-12-13T15:51:28.866Z,22.40
2022-12-13T15:54:06.044Z,19.42
2022-12-13T15:56:37.188Z,22.70
2022-12-13T15:59:26.469Z,21.80
2022-12-13T16:01:58.478Z,21.85
2022-12-13T16:04:31.155Z,22.80
2022-12-13T16:07:00.635Z,24.40
2022-12-13T16:09:32.164Z,23.45
2022-12-13T16:12:03.644Z,28.42
2022-12-13T16:14:49.734Z,25.83
2022-12-13T16:17:24.985Z,19.52
2022-12-13T16:19:55.187Z,23.17
2022-12-13T16:22:24.905Z,21.25
2022-12-13T16:24:56.498Z,19.95
2022-12-13T16:27:25.961Z,23.75
2022-12-13T16:29:57.998Z,27.55
2022-12-13T16:32:27.550Z,23.88
2022-12-13T16:34:56.936Z,22.70
2022-12-13T16:37:27.601Z,24.60
2022-12-13T16:39:57.318Z,23.05
2022-12-13T16:42:27.414Z,25.20
2022-12-13T16:45:18.117Z,28.15
2022-12-13T16:47:49.967Z,18.50
2022-12-13T16:50:21.651Z,25.75
2022-12-13T16:52:51.529Z,23.15
2022-12-13T16:55:21.202Z,26.27
2022-12-13T16:58:01.378Z,27.85
2022-12-13T17:00:33.751Z,26.67
2022-12-13T17:03:03.562Z,23.75
2022-12-13T17:05:34.319Z,24.55
2022-12-13T17:08:03.823Z,19.77
2022-12-13T17:10:33.614Z,23.20
2022-12-13T17:13:03.079Z,27.27
2022-12-13T17:15:35.071Z,13.75
2022-12-13T17:18:05.067Z,18.77
2022-12-13T17:20:34.598Z,25.60
2022-12-13T17:23:05.212Z,18.40
2022-12-13T17:25:35.149Z,15.73
2022-12-13T17:28:04.656Z,16.48
2022-12-13T17:30:37.179Z,26.35
2022-12-13T17:33:08.664Z,26.88
2022-12-13T17:35:38.136Z,17.27
2022-12-13T17:38:07.947Z,23.30
2022-12-13T17:40:38.356Z,25.63
2022-12-13T17:43:08.324Z,25.40
2022-12-13T17:45:43.868Z,24.25
2022-12-13T17:48:13.678Z,25.15
2022-12-13T17:50:43.207Z,29.50
2022-12-13T17:53:12.688Z,23.42
2022-12-13T17:55:42.343Z,27.45
2022-12-13T17:58:11.747Z,27.83
2022-12-13T18:00:43.817Z,23.55
2022-12-13T18:03:13.345Z,26.02
2022-12-13T18:05:42.808Z,24.23
2022-12-13T18:08:12.330Z,28.50
2022-12-13T18:10:41.790Z,24.65
2022-12-13T18:13:11.243Z,23.30
2022-12-13T18:15:43.244Z,27.55
2022-12-13T18:18:12.864Z,20.80
2022-12-13T18:20:42.561Z,26.02
2022-12-13T18:23:12.106Z,24.75
2022-12-13T18:25:42.033Z,26.48
2022-12-13T18:28:12.652Z,23.75
2022-12-13T18:30:44.724Z,30.38
2022-12-13T18:33:15.171Z,26.38
2022-12-13T18:35:44.709Z,30.17
2022-12-13T18:38:14.176Z,27.52
2022-12-13T18:40:46.321Z,32.50
2022-12-13T18:43:15.910Z,29.20
2022-12-13T18:45:49.005Z,31.92
2022-12-13T18:48:18.744Z,29.27
2022-12-13T18:50:48.957Z,29.13
2022-12-13T18:53:18.586Z,30.58
2022-12-13T18:55:48.037Z,30.95
2022-12-13T18:58:17.492Z,31.17
2022-12-13T19:00:50.550Z,32.50
2022-12-13T19:03:20.083Z,30.45
2022-12-13T19:05:49.666Z,30.13
2022-12-13T19:08:19.202Z,31.40
2022-12-13T19:10:48.897Z,31.73
2022-12-13T19:13:18.414Z,29.25
2022-12-13T19:15:50.542Z,28.38
2022-12-13T19:18:20.071Z,31.40
2022-12-13T19:20:49.968Z,29.85
2022-12-13T19:23:19.714Z,30.60
2022-12-13T19:25:49.752Z,27.30
2022-12-13T19:28:19.946Z,27.42
2022-12-13T19:30:52.130Z,30.80
2022-12-13T19:33:21.609Z,30.38
2022-12-13T19:35:51.395Z,32.22
2022-12-13T19:38:20.948Z,32.10
2022-12-13T19:40:50.409Z,35.03
2022-12-13T19:43:21.027Z,38.05
2022-12-13T19:45:53.048Z,35.42
2022-12-13T19:48:22.628Z,33.00
2022-12-13T19:50:52.194Z,35.30
2022-12-13T19:53:21.638Z,31.20
2022-12-13T19:55:51.068Z,35.60
2022-12-13T19:58:20.599Z,35.25
2022-12-13T20:00:50.116Z,34.42
2022-12-13T20:03:23.437Z,34.63
2022-12-13T20:05:59.927Z,31.23
2022-12-13T20:08:29.864Z,36.85
2022-12-13T20:11:00.877Z,36.60
2022-12-13T20:13:30.754Z,44.97
2022-12-13T20:16:00.589Z,47.03
2022-12-13T20:18:32.685Z,33.60
2022-12-13T20:21:13.701Z,34.67
2022-12-13T20:23:49.751Z,32.60
2022-12-13T20:26:22.259Z,32.88
2022-12-13T20:28:52.345Z,30.70
2022-12-13T20:31:23.635Z,31.45
2022-12-13T20:33:59.908Z,32.05
2022-12-13T20:36:30.654Z,31.55
2022-12-13T20:39:01.946Z,30.48
2022-12-13T20:41:33.284Z,30.27
2022-12-13T20:44:04.091Z,29.83
2022-12-13T20:46:34.484Z,30.30
2022-12-13T20:49:08.701Z,32.08
2022-12-13T20:51:39.463Z,31.02
2022-12-13T20:54:09.257Z,30.58
2022-12-13T20:56:40.190Z,28.70
2022-12-13T20:59:12.682Z,28.75
2022-12-13T21:01:43.341Z,30.77
2022-12-13T21:04:15.453Z,27.65
2022-12-13T21:06:45.179Z,29.33
2022-12-13T21:09:14.732Z,28.67
2022-12-13T21:11:45.564Z,28.67
2022-12-13T21:14:21.362Z,31.13
2022-12-13T21:16:53.764Z,30.70
2022-12-13T21:19:27.469Z,30.42
2022-12-13T21:21:58.190Z,27.98
2022-12-13T21:24:29.394Z,28.58
2022-12-13T21:26:59.933Z,27.55
2022-12-13T21:29:29.431Z,28.02
2022-12-13T21:31:58.912Z,29.90
2022-12-13T21:34:31.223Z,27.05
2022-12-13T21:37:00.648Z,26.95
2022-12-13T21:39:30.986Z,25.48
2022-12-13T21:42:00.777Z,26.48
2022-12-13T21:44:30.184Z,27.40
2022-12-13T21:47:15.092Z,28.67
2022-12-13T21:49:48.432Z,26.77
2022-12-13T21:52:18.511Z,27.48
2022-12-13T21:54:47.986Z,26.23
2022-12-13T21:57:29.918Z,25.30
2022-12-13T21:59:59.405Z,27.55
2022-12-13T22:02:29.017Z,27.83
2022-12-13T22:05:01.824Z,26.48
2022-12-13T22:07:32.722Z,27.70
2022-12-13T22:10:03.940Z,26.02
2022-12-13T22:12:36.168Z,26.05
2022-12-13T22:15:07.337Z,25.95
2022-12-13T22:17:36.826Z,26.33
2022-12-13T22:20:11.535Z,26.45
2022-12-13T22:22:41.570Z,26.48
2022-12-13T22:25:11.902Z,27.58
2022-12-13T22:27:41.347Z,25.23
2022-12-13T22:30:12.161Z,27.95
2022-12-13T22:32:42.355Z,26.80
2022-12-13T22:35:14.653Z,26.83
2022-12-13T22:37:44.079Z,26.63
2022-12-13T22:40:18.328Z,27.08
2022-12-13T22:42:48.373Z,25.80
2022-12-13T22:45:18.182Z,25.33
2022-12-13T22:47:47.655Z,25.50
2022-12-13T22:50:20.832Z,25.45
2022-12-13T22:52:50.296Z,23.08
2022-12-13T22:55:19.852Z,25.08
2022-12-13T22:57:49.295Z,24.95
2022-12-13T23:00:19.193Z,24.48
2022-12-13T23:02:48.787Z,25.20
2022-12-13T23:05:20.885Z,23.13
2022-12-13T23:07:50.399Z,25.05
2022-12-13T23:10:32.441Z,23.05
2022-12-13T23:13:04.568Z,24.42
2022-12-13T23:15:34.045Z,26.27
2022-12-13T23:18:03.539Z,23.13
2022-12-13T23:20:36.219Z,23.02
2022-12-13T23:23:05.829Z,24.30
2022-12-13T23:25:35.682Z,25.15
2022-12-13T23:28:05.343Z,23.30
2022-12-13T23:30:34.762Z,23.58
2022-12-13T23:33:04.328Z,21.90
2022-12-13T23:35:36.379Z,23.27
2022-12-13T23:38:05.859Z,22.30
2022-12-13T23:40:35.371Z,23.13
2022-12-13T23:43:04.876Z,24.10
2022-12-13T23:45:34.411Z,24.75
2022-12-13T23:48:03.884Z,22.80
2022-12-13T23:50:35.885Z,23.77
2022-12-13T23:53:05.393Z,23.05
2022-12-13T23:55:38.959Z,22.80
2022-12-13T23:58:09.049Z,23.02
